sensor_id;sensor_type;location;lat;lon;timestamp;pressure;altitude;pressure_sealevel;temperature;humidity
75063;BME280;63981;51.052;13.754;2023-08-12T00:02:15;100829.56;;;17.46;76.93
75063;BME280;63981;51.052;13.754;2023-08-12T00:04:42;100828.13;;;17.42;77.13
75063;BME280;63981;51.052;13.754;2023-08-12T00:07:08;100823.06;;;17.38;76.26
75063;BME280;63981;51.052;13.754;2023-08-12T00:09:36;100821.50;;;17.36;77.06
75063;BME280;63981;51.052;13.754;2023-08-12T00:12:02;100832.16;;;17.36;77.03
75063;BME280;63981;51.052;13.754;2023-08-12T00:14:29;100828.81;;;17.34;76.56
75063;BME280;63981;51.052;13.754;2023-08-12T00:16:55;100828.81;;;17.34;76.46
75063;BME280;63981;51.052;13.754;2023-08-12T00:19:21;100820.09;;;17.32;77.24
75063;BME280;63981;51.052;13.754;2023-08-12T00:21:47;100827.22;;;17.31;77.35
75063;BME280;63981;51.052;13.754;2023-08-12T00:24:14;100830.84;;;17.30;77.63
75063;BME280;63981;51.052;13.754;2023-08-12T00:26:42;100828.31;;;17.29;77.19
75063;BME280;63981;51.052;13.754;2023-08-12T00:29:08;100827.47;;;17.28;77.03
75063;BME280;63981;51.052;13.754;2023-08-12T00:31:34;100819.63;;;17.27;76.72
75063;BME280;63981;51.052;13.754;2023-08-12T00:34:01;100824.94;;;17.27;77.86
75063;BME280;63981;51.052;13.754;2023-08-12T00:36:27;100823.13;;;17.27;77.24
75063;BME280;63981;51.052;13.754;2023-08-12T00:38:53;100824.25;;;17.25;77.96
75063;BME280;63981;51.052;13.754;2023-08-12T00:41:20;100815.81;;;17.20;77.05
75063;BME280;63981;51.052;13.754;2023-08-12T00:43:48;100817.63;;;17.19;77.16
75063;BME280;63981;51.052;13.754;2023-08-12T00:46:14;100812.28;;;17.19;77.56
75063;BME280;63981;51.052;13.754;2023-08-12T00:48:40;100812.53;;;17.16;77.60
75063;BME280;63981;51.052;13.754;2023-08-12T00:51:06;100810.00;;;17.15;77.84
75063;BME280;63981;51.052;13.754;2023-08-12T00:53:34;100808.31;;;17.14;77.64
75063;BME280;63981;51.052;13.754;2023-08-12T00:56:00;100814.47;;;17.14;77.84
75063;BME280;63981;51.052;13.754;2023-08-12T00:58:27;100814.75;;;17.11;77.87
75063;BME280;63981;51.052;13.754;2023-08-12T01:00:55;100796.59;;;17.05;78.10
75063;BME280;63981;51.052;13.754;2023-08-12T01:03:22;100813.19;;;17.08;78.00
75063;BME280;63981;51.052;13.754;2023-08-12T01:05:49;100803.66;;;17.06;77.95
75063;BME280;63981;51.052;13.754;2023-08-12T01:08:34;100810.75;;;17.05;78.33
75063;BME280;63981;51.052;13.754;2023-08-12T01:11:22;100811.88;;;17.03;77.86
75063;BME280;63981;51.052;13.754;2023-08-12T01:14:18;100801.47;;;17.00;77.93
75063;BME280;63981;51.052;13.754;2023-08-12T01:17:09;100804.97;;;17.00;77.78
75063;BME280;63981;51.052;13.754;2023-08-12T01:19:56;100803.16;;;17.01;77.75
75063;BME280;63981;51.052;13.754;2023-08-12T01:22:44;100803.69;;;16.95;77.92
75063;BME280;63981;51.052;13.754;2023-08-12T01:25:30;100799.66;;;17.00;78.05
75063;BME280;63981;51.052;13.754;2023-08-12T01:28:15;100809.34;;;17.01;77.91
75063;BME280;63981;51.052;13.754;2023-08-12T01:31:06;100793.75;;;16.97;77.59
75063;BME280;63981;51.052;13.754;2023-08-12T01:34:02;100800.38;;;17.02;77.59
75063;BME280;63981;51.052;13.754;2023-08-12T01:36:52;100801.94;;;17.05;77.42
75063;BME280;63981;51.052;13.754;2023-08-12T01:39:39;100799.25;;;17.05;76.97
75063;BME280;63981;51.052;13.754;2023-08-12T01:42:27;100784.78;;;16.98;77.15
75063;BME280;63981;51.052;13.754;2023-08-12T01:45:13;100800.00;;;17.07;77.11
75063;BME280;63981;51.052;13.754;2023-08-12T01:47:59;100788.38;;;17.08;77.28
75063;BME280;63981;51.052;13.754;2023-08-12T01:50:44;100781.22;;;17.08;77.24
75063;BME280;63981;51.052;13.754;2023-08-12T01:53:32;100784.72;;;17.09;76.33
75063;BME280;63981;51.052;13.754;2023-08-12T01:56:18;100786.41;;;17.10;77.53
75063;BME280;63981;51.052;13.754;2023-08-12T01:59:04;100788.25;;;17.09;76.73
75063;BME280;63981;51.052;13.754;2023-08-12T02:01:49;100777.00;;;17.06;77.27
75063;BME280;63981;51.052;13.754;2023-08-12T02:04:34;100767.97;;;16.97;77.47
75063;BME280;63981;51.052;13.754;2023-08-12T02:07:21;100779.66;;;17.06;77.48
75063;BME280;63981;51.052;13.754;2023-08-12T02:10:07;100772.63;;;17.05;76.55
75063;BME280;63981;51.052;13.754;2023-08-12T02:12:51;100770.81;;;17.05;77.08
75063;BME280;63981;51.052;13.754;2023-08-12T02:15:38;100766.47;;;17.04;77.58
75063;BME280;63981;51.052;13.754;2023-08-12T02:18:29;100765.88;;;17.01;76.82
75063;BME280;63981;51.052;13.754;2023-08-12T02:21:14;100768.81;;;16.98;77.21
75063;BME280;63981;51.052;13.754;2023-08-12T02:23:59;100764.97;;;16.91;77.38
75063;BME280;63981;51.052;13.754;2023-08-12T02:26:44;100758.91;;;16.89;77.95
75063;BME280;63981;51.052;13.754;2023-08-12T02:29:29;100753.00;;;16.85;77.30
75063;BME280;63981;51.052;13.754;2023-08-12T02:32:16;100756.38;;;16.87;77.35
75063;BME280;63981;51.052;13.754;2023-08-12T02:35:00;100750.34;;;16.85;77.56
75063;BME280;63981;51.052;13.754;2023-08-12T02:37:27;100725.19;;;16.78;77.26
75063;BME280;63981;51.052;13.754;2023-08-12T02:39:53;100737.31;;;16.82;77.69
75063;BME280;63981;51.052;13.754;2023-08-12T02:42:21;100737.44;;;16.80;77.25
75063;BME280;63981;51.052;13.754;2023-08-12T02:44:47;100740.19;;;16.79;77.25
75063;BME280;63981;51.052;13.754;2023-08-12T02:47:13;100736.69;;;16.78;77.31
75063;BME280;63981;51.052;13.754;2023-08-12T02:49:41;100739.50;;;16.77;77.41
75063;BME280;63981;51.052;13.754;2023-08-12T02:52:09;100730.53;;;16.78;76.93
75063;BME280;63981;51.052;13.754;2023-08-12T02:54:36;100733.31;;;16.76;76.94
75063;BME280;63981;51.052;13.754;2023-08-12T02:57:02;100734.03;;;16.78;77.24
75063;BME280;63981;51.052;13.754;2023-08-12T02:59:28;100733.31;;;16.76;76.74
75063;BME280;63981;51.052;13.754;2023-08-12T03:01:55;100730.78;;;16.75;77.08
75063;BME280;63981;51.052;13.754;2023-08-12T03:04:22;100731.75;;;16.74;76.20
75063;BME280;63981;51.052;13.754;2023-08-12T03:06:50;100737.09;;;16.74;77.00
75063;BME280;63981;51.052;13.754;2023-08-12T03:09:16;100734.44;;;16.74;76.49
75063;BME280;63981;51.052;13.754;2023-08-12T03:11:45;100739.75;;;16.74;76.82
75063;BME280;63981;51.052;13.754;2023-08-12T03:14:12;100742.41;;;16.74;76.53
75063;BME280;63981;51.052;13.754;2023-08-12T03:16:38;100738.91;;;16.73;76.86
75063;BME280;63981;51.052;13.754;2023-08-12T03:19:04;100733.97;;;16.69;76.82
75063;BME280;63981;51.052;13.754;2023-08-12T03:21:31;100743.66;;;16.70;76.68
75063;BME280;63981;51.052;13.754;2023-08-12T03:24:00;100738.56;;;16.67;76.86
75063;BME280;63981;51.052;13.754;2023-08-12T03:26:26;100746.66;;;16.65;77.10
75063;BME280;63981;51.052;13.754;2023-08-12T03:28:55;100738.78;;;16.64;76.99
75063;BME280;63981;51.052;13.754;2023-08-12T03:31:21;100729.97;;;16.63;77.25
75063;BME280;63981;51.052;13.754;2023-08-12T03:33:47;100735.41;;;16.62;77.12
75063;BME280;63981;51.052;13.754;2023-08-12T03:36:14;100736.25;;;16.62;77.60
75063;BME280;63981;51.052;13.754;2023-08-12T03:38:40;100731.19;;;16.59;77.24
75063;BME280;63981;51.052;13.754;2023-08-12T03:41:13;100728.66;;;16.58;77.62
75063;BME280;63981;51.052;13.754;2023-08-12T03:43:39;100722.75;;;16.54;77.22
75063;BME280;63981;51.052;13.754;2023-08-12T03:46:05;100720.47;;;16.49;77.49
75063;BME280;63981;51.052;13.754;2023-08-12T03:48:32;100723.00;;;16.51;77.57
75063;BME280;63981;51.052;13.754;2023-08-12T03:50:59;100724.81;;;16.50;77.62
75063;BME280;63981;51.052;13.754;2023-08-12T03:53:26;100726.63;;;16.50;77.42
75063;BME280;63981;51.052;13.754;2023-08-12T03:55:53;100720.47;;;16.49;77.08
75063;BME280;63981;51.052;13.754;2023-08-12T03:58:22;100726.63;;;16.50;77.26
75063;BME280;63981;51.052;13.754;2023-08-12T04:00:49;100717.53;;;16.52;77.48
75063;BME280;63981;51.052;13.754;2023-08-12T04:03:16;100711.63;;;16.49;77.25
75063;BME280;63981;51.052;13.754;2023-08-12T04:05:49;100714.53;;;16.57;77.12
75063;BME280;63981;51.052;13.754;2023-08-12T04:08:16;100712.00;;;16.56;77.42
75063;BME280;63981;51.052;13.754;2023-08-12T04:10:44;100718.72;;;16.60;76.87
75063;BME280;63981;51.052;13.754;2023-08-12T04:13:11;100721.97;;;16.63;77.21
75063;BME280;63981;51.052;13.754;2023-08-12T04:15:38;100724.38;;;16.66;76.35
75063;BME280;63981;51.052;13.754;2023-08-12T04:18:05;100712.56;;;16.70;75.87
75063;BME280;63981;51.052;13.754;2023-08-12T04:20:31;100714.56;;;16.78;76.39
75063;BME280;63981;51.052;13.754;2023-08-12T04:22:58;100709.97;;;16.80;75.73
75063;BME280;63981;51.052;13.754;2023-08-12T04:25:25;100715.72;;;16.85;75.61
75063;BME280;63981;51.052;13.754;2023-08-12T04:27:52;100709.16;;;16.89;75.74
75063;BME280;63981;51.052;13.754;2023-08-12T04:30:18;100706.91;;;16.85;75.50
75063;BME280;63981;51.052;13.754;2023-08-12T04:32:48;100707.81;;;16.95;74.93
75063;BME280;63981;51.052;13.754;2023-08-12T04:35:14;100710.78;;;17.01;74.74
75063;BME280;63981;51.052;13.754;2023-08-12T04:37:41;100707.47;;;17.09;74.32
75063;BME280;63981;51.052;13.754;2023-08-12T04:40:08;100716.88;;;17.13;74.36
75063;BME280;63981;51.052;13.754;2023-08-12T04:42:35;100716.63;;;17.16;74.34
75063;BME280;63981;51.052;13.754;2023-08-12T04:45:03;100706.81;;;17.17;74.01
75063;BME280;63981;51.052;13.754;2023-08-12T04:47:31;100713.16;;;17.25;73.44
75063;BME280;63981;51.052;13.754;2023-08-12T04:49:58;100719.22;;;17.27;73.10
75063;BME280;63981;51.052;13.754;2023-08-12T04:52:25;100716.41;;;17.29;73.25
75063;BME280;63981;51.052;13.754;2023-08-12T04:54:52;100703.78;;;17.31;73.31
75063;BME280;63981;51.052;13.754;2023-08-12T04:57:19;100701.97;;;17.31;72.86
75063;BME280;63981;51.052;13.754;2023-08-12T04:59:45;100706.06;;;17.35;73.60
75063;BME280;63981;51.052;13.754;2023-08-12T05:02:12;100698.66;;;17.39;73.26
75063;BME280;63981;51.052;13.754;2023-08-12T05:04:39;100695.56;;;17.44;73.43
75063;BME280;63981;51.052;13.754;2023-08-12T05:07:07;100701.38;;;17.49;72.89
75063;BME280;63981;51.052;13.754;2023-08-12T05:09:33;100693.09;;;17.52;72.48
75063;BME280;63981;51.052;13.754;2023-08-12T05:12:00;100700.66;;;17.56;72.10
75063;BME280;63981;51.052;13.754;2023-08-12T05:14:26;100695.09;;;17.59;73.29
75063;BME280;63981;51.052;13.754;2023-08-12T05:16:53;100697.47;;;17.62;72.13
75063;BME280;63981;51.052;13.754;2023-08-12T05:19:19;100706.75;;;17.68;72.08
75063;BME280;63981;51.052;13.754;2023-08-12T05:21:46;100700.94;;;17.74;71.59
75063;BME280;63981;51.052;13.754;2023-08-12T05:24:13;100693.91;;;17.73;71.37
75063;BME280;63981;51.052;13.754;2023-08-12T05:26:42;100711.50;;;17.85;71.78
75063;BME280;63981;51.052;13.754;2023-08-12T05:29:08;100707.13;;;17.94;71.17
75063;BME280;63981;51.052;13.754;2023-08-12T05:31:35;100693.81;;;18.04;71.36
75063;BME280;63981;51.052;13.754;2023-08-12T05:34:01;100694.00;;;18.12;70.11
75063;BME280;63981;51.052;13.754;2023-08-12T05:36:28;100687.53;;;18.24;70.25
75063;BME280;63981;51.052;13.754;2023-08-12T05:38:55;100690.63;;;18.39;70.00
75063;BME280;63981;51.052;13.754;2023-08-12T05:41:22;100697.38;;;18.52;69.15
75063;BME280;63981;51.052;13.754;2023-08-12T05:43:49;100688.38;;;18.63;69.13
75063;BME280;63981;51.052;13.754;2023-08-12T05:46:15;100687.41;;;18.74;69.13
75063;BME280;63981;51.052;13.754;2023-08-12T05:48:41;100694.41;;;18.84;68.42
75063;BME280;63981;51.052;13.754;2023-08-12T05:51:07;100693.25;;;18.97;67.76
75063;BME280;63981;51.052;13.754;2023-08-12T05:53:33;100690.44;;;19.08;67.52
75063;BME280;63981;51.052;13.754;2023-08-12T05:56:00;100691.91;;;19.30;66.86
75063;BME280;63981;51.052;13.754;2023-08-12T05:58:27;100686.94;;;19.44;65.92
75063;BME280;63981;51.052;13.754;2023-08-12T06:00:54;100685.63;;;19.58;65.38
75063;BME280;63981;51.052;13.754;2023-08-12T06:03:20;100684.19;;;19.64;64.57
75063;BME280;63981;51.052;13.754;2023-08-12T06:05:47;100686.59;;;19.67;64.75
75063;BME280;63981;51.052;13.754;2023-08-12T06:08:14;100676.22;;;19.82;64.15
75063;BME280;63981;51.052;13.754;2023-08-12T06:10:40;100674.88;;;19.95;63.83
75063;BME280;63981;51.052;13.754;2023-08-12T06:13:06;100670.97;;;20.08;63.93
75063;BME280;63981;51.052;13.754;2023-08-12T06:15:33;100666.78;;;20.23;63.79
75063;BME280;63981;51.052;13.754;2023-08-12T06:17:59;100674.66;;;20.42;62.39
75063;BME280;63981;51.052;13.754;2023-08-12T06:20:25;100669.16;;;20.61;61.52
75063;BME280;63981;51.052;13.754;2023-08-12T06:22:51;100668.28;;;20.79;61.56
75063;BME280;63981;51.052;13.754;2023-08-12T06:25:18;100662.34;;;20.93;62.31
75063;BME280;63981;51.052;13.754;2023-08-12T06:27:44;100660.03;;;20.98;61.49
75063;BME280;63981;51.052;13.754;2023-08-12T06:30:11;100653.72;;;21.07;60.44
75063;BME280;63981;51.052;13.754;2023-08-12T06:32:40;100660.72;;;21.26;60.42
75063;BME280;63981;51.052;13.754;2023-08-12T06:35:06;100660.63;;;21.44;59.31
75063;BME280;63981;51.052;13.754;2023-08-12T06:37:32;100657.16;;;21.60;58.95
75063;BME280;63981;51.052;13.754;2023-08-12T06:39:58;100665.31;;;21.76;58.58
75063;BME280;63981;51.052;13.754;2023-08-12T06:42:24;100661.69;;;21.59;58.21
75063;BME280;63981;51.052;13.754;2023-08-12T06:44:54;100660.16;;;21.48;58.78
75063;BME280;63981;51.052;13.754;2023-08-12T06:47:20;100664.00;;;21.46;58.33
75063;BME280;63981;51.052;13.754;2023-08-12T06:49:48;100652.75;;;21.42;58.61
75063;BME280;63981;51.052;13.754;2023-08-12T06:52:14;100658.13;;;21.42;59.31
75063;BME280;63981;51.052;13.754;2023-08-12T06:54:41;100655.28;;;21.44;59.06
75063;BME280;63981;51.052;13.754;2023-08-12T06:57:07;100658.34;;;21.49;59.71
75063;BME280;63981;51.052;13.754;2023-08-12T06:59:34;100653.69;;;21.67;58.67
75063;BME280;63981;51.052;13.754;2023-08-12T07:02:00;100649.22;;;21.92;58.56
75063;BME280;63981;51.052;13.754;2023-08-12T07:04:26;100657.81;;;22.04;57.90
75063;BME280;63981;51.052;13.754;2023-08-12T07:06:53;100648.09;;;22.11;57.85
75063;BME280;63981;51.052;13.754;2023-08-12T07:09:19;100650.31;;;22.32;57.39
75063;BME280;63981;51.052;13.754;2023-08-12T07:11:45;100645.13;;;22.30;57.05
75063;BME280;63981;51.052;13.754;2023-08-12T07:14:11;100651.97;;;22.25;57.40
75063;BME280;63981;51.052;13.754;2023-08-12T07:16:37;100654.50;;;22.26;57.48
75063;BME280;63981;51.052;13.754;2023-08-12T07:19:03;100647.31;;;22.27;57.28
75063;BME280;63981;51.052;13.754;2023-08-12T07:21:29;100648.81;;;22.29;57.50
75063;BME280;63981;51.052;13.754;2023-08-12T07:23:57;100648.66;;;22.55;57.28
75063;BME280;63981;51.052;13.754;2023-08-12T07:26:23;100636.88;;;22.89;56.37
75063;BME280;63981;51.052;13.754;2023-08-12T07:28:49;100644.75;;;22.99;56.70
75063;BME280;63981;51.052;13.754;2023-08-12T07:31:15;100644.22;;;23.11;55.26
75063;BME280;63981;51.052;13.754;2023-08-12T07:33:41;100641.28;;;23.29;55.83
75063;BME280;63981;51.052;13.754;2023-08-12T07:36:07;100641.56;;;23.50;54.57
75063;BME280;63981;51.052;13.754;2023-08-12T07:38:34;100636.75;;;23.77;54.11
75063;BME280;63981;51.052;13.754;2023-08-12T07:41:01;100628.88;;;23.98;52.99
75063;BME280;63981;51.052;13.754;2023-08-12T07:43:28;100633.34;;;24.29;52.54
75063;BME280;63981;51.052;13.754;2023-08-12T07:45:54;100631.88;;;24.49;52.51
75063;BME280;63981;51.052;13.754;2023-08-12T07:48:20;100631.09;;;24.78;51.84
75063;BME280;63981;51.052;13.754;2023-08-12T07:50:46;100625.75;;;25.08;50.91
75063;BME280;63981;51.052;13.754;2023-08-12T07:53:15;100617.47;;;25.24;50.40
75063;BME280;63981;51.052;13.754;2023-08-12T07:55:41;100621.16;;;25.52;50.05
75063;BME280;63981;51.052;13.754;2023-08-12T07:58:09;100623.25;;;25.86;50.12
75063;BME280;63981;51.052;13.754;2023-08-12T08:00:34;100622.22;;;26.09;50.13
75063;BME280;63981;51.052;13.754;2023-08-12T08:03:00;100620.94;;;26.26;48.31
75063;BME280;63981;51.052;13.754;2023-08-12T08:05:26;100625.25;;;26.42;47.84
75063;BME280;63981;51.052;13.754;2023-08-12T08:07:52;100622.22;;;26.52;47.34
75063;BME280;63981;51.052;13.754;2023-08-12T08:10:18;100612.00;;;26.75;47.87
75063;BME280;63981;51.052;13.754;2023-08-12T08:12:44;100607.75;;;26.94;46.95
75063;BME280;63981;51.052;13.754;2023-08-12T08:15:12;100602.56;;;27.27;47.48
75063;BME280;63981;51.052;13.754;2023-08-12T08:17:38;100598.19;;;27.32;45.82
75063;BME280;63981;51.052;13.754;2023-08-12T08:20:04;100590.59;;;27.49;45.67
75063;BME280;63981;51.052;13.754;2023-08-12T08:22:34;100587.97;;;27.76;45.77
75063;BME280;63981;51.052;13.754;2023-08-12T08:24:59;100583.44;;;27.89;44.50
75063;BME280;63981;51.052;13.754;2023-08-12T08:27:25;100584.88;;;27.99;44.40
75063;BME280;63981;51.052;13.754;2023-08-12T08:29:52;100587.00;;;28.03;44.16
75063;BME280;63981;51.052;13.754;2023-08-12T08:32:19;100587.59;;;28.25;43.58
75063;BME280;63981;51.052;13.754;2023-08-12T08:34:46;100587.25;;;28.55;43.35
75063;BME280;63981;51.052;13.754;2023-08-12T08:37:11;100592.00;;;28.72;43.48
75063;BME280;63981;51.052;13.754;2023-08-12T08:39:37;100590.13;;;28.93;43.51
75063;BME280;63981;51.052;13.754;2023-08-12T08:42:04;100593.22;;;29.10;42.72
75063;BME280;63981;51.052;13.754;2023-08-12T08:44:31;100587.06;;;29.27;44.16
75063;BME280;63981;51.052;13.754;2023-08-12T08:46:59;100582.75;;;29.20;42.02
75063;BME280;63981;51.052;13.754;2023-08-12T08:49:26;100585.50;;;29.00;42.96
75063;BME280;63981;51.052;13.754;2023-08-12T08:51:54;100578.34;;;29.19;43.39
75063;BME280;63981;51.052;13.754;2023-08-12T08:54:20;100584.94;;;29.49;42.16
75063;BME280;63981;51.052;13.754;2023-08-12T08:56:47;100577.69;;;29.75;40.71
75063;BME280;63981;51.052;13.754;2023-08-12T08:59:14;100582.50;;;30.04;41.81
75063;BME280;63981;51.052;13.754;2023-08-12T09:01:40;100578.50;;;30.13;41.41
75063;BME280;63981;51.052;13.754;2023-08-12T09:04:07;100571.56;;;30.42;39.75
75063;BME280;63981;51.052;13.754;2023-08-12T09:06:35;100579.34;;;30.64;39.11
75063;BME280;63981;51.052;13.754;2023-08-12T09:09:02;100578.16;;;30.78;38.71
75063;BME280;63981;51.052;13.754;2023-08-12T09:11:31;100575.13;;;30.86;37.90
75063;BME280;63981;51.052;13.754;2023-08-12T09:13:59;100564.69;;;30.83;37.60
75063;BME280;63981;51.052;13.754;2023-08-12T09:16:25;100558.94;;;31.09;38.39
75063;BME280;63981;51.052;13.754;2023-08-12T09:18:55;100561.94;;;31.56;35.93
75063;BME280;63981;51.052;13.754;2023-08-12T09:21:21;100548.03;;;31.76;36.18
75063;BME280;63981;51.052;13.754;2023-08-12T09:23:49;100540.03;;;31.93;35.77
75063;BME280;63981;51.052;13.754;2023-08-12T09:26:15;100553.34;;;31.71;36.41
75063;BME280;63981;51.052;13.754;2023-08-12T09:28:42;100549.13;;;31.87;37.00
75063;BME280;63981;51.052;13.754;2023-08-12T09:31:08;100541.81;;;31.99;35.56
75063;BME280;63981;51.052;13.754;2023-08-12T09:33:47;100541.16;;;32.50;35.11
75063;BME280;63981;51.052;13.754;2023-08-12T09:36:13;100532.25;;;32.90;35.16
75063;BME280;63981;51.052;13.754;2023-08-12T09:38:39;100533.88;;;33.03;33.50
75063;BME280;63981;51.052;13.754;2023-08-12T09:41:07;100529.69;;;33.52;32.13
75063;BME280;63981;51.052;13.754;2023-08-12T09:43:33;100523.56;;;33.90;30.97
75063;BME280;63981;51.052;13.754;2023-08-12T09:45:59;100517.66;;;34.49;30.95
75063;BME280;63981;51.052;13.754;2023-08-12T09:48:25;100515.63;;;34.39;30.98
75063;BME280;63981;51.052;13.754;2023-08-12T09:50:51;100524.38;;;34.08;30.82
75063;BME280;63981;51.052;13.754;2023-08-12T09:53:17;100522.50;;;34.42;29.39
75063;BME280;63981;51.052;13.754;2023-08-12T09:55:43;100519.56;;;34.31;27.28
75063;BME280;63981;51.052;13.754;2023-08-12T09:58:14;100521.16;;;34.27;27.78
75063;BME280;63981;51.052;13.754;2023-08-12T10:00:42;100517.44;;;34.00;27.16
75063;BME280;63981;51.052;13.754;2023-08-12T10:03:08;100519.78;;;33.63;27.53
75063;BME280;63981;51.052;13.754;2023-08-12T10:05:36;100518.97;;;33.34;28.48
75063;BME280;63981;51.052;13.754;2023-08-12T10:08:03;100519.31;;;32.74;28.44
75063;BME280;63981;51.052;13.754;2023-08-12T10:10:32;100521.00;;;32.40;28.81
75063;BME280;63981;51.052;13.754;2023-08-12T10:12:58;100516.72;;;32.20;29.57
75063;BME280;63981;51.052;13.754;2023-08-12T10:15:26;100515.59;;;31.86;30.58
75063;BME280;63981;51.052;13.754;2023-08-12T10:17:52;100507.81;;;31.72;30.25
75063;BME280;63981;51.052;13.754;2023-08-12T10:20:20;100507.09;;;31.64;30.13
75063;BME280;63981;51.052;13.754;2023-08-12T10:22:46;100507.38;;;31.45;30.45
75063;BME280;63981;51.052;13.754;2023-08-12T10:25:14;100502.94;;;31.32;31.46
75063;BME280;63981;51.052;13.754;2023-08-12T10:27:41;100501.25;;;31.19;31.21
75063;BME280;63981;51.052;13.754;2023-08-12T10:30:08;100510.69;;;31.17;30.70
75063;BME280;63981;51.052;13.754;2023-08-12T10:32:36;100507.06;;;31.04;31.35
75063;BME280;63981;51.052;13.754;2023-08-12T10:35:03;100504.63;;;30.96;32.52
75063;BME280;63981;51.052;13.754;2023-08-12T10:37:32;100509.41;;;30.82;32.14
75063;BME280;63981;51.052;13.754;2023-08-12T10:39:59;100498.84;;;30.74;31.74
75063;BME280;63981;51.052;13.754;2023-08-12T10:42:43;100501.59;;;30.49;32.23
75063;BME280;63981;51.052;13.754;2023-08-12T10:45:10;100499.84;;;30.37;32.43
75063;BME280;63981;51.052;13.754;2023-08-12T10:47:39;100503.31;;;30.44;32.30
75063;BME280;63981;51.052;13.754;2023-08-12T10:50:16;100500.13;;;30.47;33.06
75063;BME280;63981;51.052;13.754;2023-08-12T10:52:43;100502.25;;;30.45;32.04
75063;BME280;63981;51.052;13.754;2023-08-12T10:55:20;100495.00;;;30.57;32.60
75063;BME280;63981;51.052;13.754;2023-08-12T10:57:48;100479.13;;;30.54;33.14
75063;BME280;63981;51.052;13.754;2023-08-12T11:00:15;100491.22;;;30.58;32.35
75063;BME280;63981;51.052;13.754;2023-08-12T11:02:48;100483.28;;;30.57;33.12
75063;BME280;63981;51.052;13.754;2023-08-12T11:05:14;100488.84;;;30.68;33.34
75063;BME280;63981;51.052;13.754;2023-08-12T11:07:42;100482.63;;;30.98;32.72
75063;BME280;63981;51.052;13.754;2023-08-12T11:10:11;100477.00;;;31.29;33.14
75063;BME280;63981;51.052;13.754;2023-08-12T11:12:42;100478.03;;;31.58;32.38
75063;BME280;63981;51.052;13.754;2023-08-12T11:15:11;100479.09;;;32.22;31.93
75063;BME280;63981;51.052;13.754;2023-08-12T11:17:38;100473.28;;;33.06;30.66
75063;BME280;63981;51.052;13.754;2023-08-12T11:20:07;100474.22;;;34.19;28.08
75063;BME280;63981;51.052;13.754;2023-08-12T11:22:35;100475.28;;;33.84;28.24
75063;BME280;63981;51.052;13.754;2023-08-12T11:25:03;100476.47;;;33.43;28.40
75063;BME280;63981;51.052;13.754;2023-08-12T11:27:36;100467.97;;;33.28;28.81
75063;BME280;63981;51.052;13.754;2023-08-12T11:30:04;100472.81;;;32.57;28.99
75063;BME280;63981;51.052;13.754;2023-08-12T11:32:30;100476.44;;;32.74;28.91
75063;BME280;63981;51.052;13.754;2023-08-12T11:34:57;100462.94;;;33.65;29.35
75063;BME280;63981;51.052;13.754;2023-08-12T11:37:25;100450.38;;;34.53;28.17
75063;BME280;63981;51.052;13.754;2023-08-12T11:39:51;100467.75;;;34.08;28.15
75063;BME280;63981;51.052;13.754;2023-08-12T11:42:17;100468.47;;;33.53;28.35
75063;BME280;63981;51.052;13.754;2023-08-12T11:44:44;100459.81;;;32.76;29.30
75063;BME280;63981;51.052;13.754;2023-08-12T11:47:10;100467.69;;;32.25;30.17
75063;BME280;63981;51.052;13.754;2023-08-12T11:49:36;100458.41;;;31.68;30.61
75063;BME280;63981;51.052;13.754;2023-08-12T11:52:03;100450.50;;;31.48;31.57
75063;BME280;63981;51.052;13.754;2023-08-12T11:54:32;100453.25;;;31.48;31.88
75063;BME280;63981;51.052;13.754;2023-08-12T11:56:59;100445.44;;;31.63;32.78
75063;BME280;63981;51.052;13.754;2023-08-12T11:59:25;100444.44;;;31.88;32.27
75063;BME280;63981;51.052;13.754;2023-08-12T12:01:52;100451.31;;;32.61;30.85
75063;BME280;63981;51.052;13.754;2023-08-12T12:04:20;100454.56;;;34.39;28.62
75063;BME280;63981;51.052;13.754;2023-08-12T12:06:47;100444.59;;;37.57;24.42
75063;BME280;63981;51.052;13.754;2023-08-12T12:09:14;100430.59;;;41.11;20.83
75063;BME280;63981;51.052;13.754;2023-08-12T12:11:42;100428.69;;;43.27;18.98
75063;BME280;63981;51.052;13.754;2023-08-12T12:14:08;100425.53;;;43.88;18.03
75063;BME280;63981;51.052;13.754;2023-08-12T12:16:38;100420.00;;;45.45;16.69
75063;BME280;63981;51.052;13.754;2023-08-12T12:19:08;100413.44;;;47.14;16.41
75063;BME280;63981;51.052;13.754;2023-08-12T12:21:38;100416.91;;;48.10;14.89
75063;BME280;63981;51.052;13.754;2023-08-12T12:24:04;100423.59;;;47.85;15.38
75063;BME280;63981;51.052;13.754;2023-08-12T12:26:30;100424.94;;;46.50;14.83
75063;BME280;63981;51.052;13.754;2023-08-12T12:28:57;100423.50;;;44.41;16.92
75063;BME280;63981;51.052;13.754;2023-08-12T12:31:24;100430.63;;;41.30;19.43
75063;BME280;63981;51.052;13.754;2023-08-12T12:33:50;100422.91;;;39.64;21.63
75063;BME280;63981;51.052;13.754;2023-08-12T12:36:16;100426.63;;;40.07;21.47
75063;BME280;63981;51.052;13.754;2023-08-12T12:38:42;100420.34;;;43.05;19.50
75063;BME280;63981;51.052;13.754;2023-08-12T12:41:07;100419.59;;;41.24;20.19
75063;BME280;63981;51.052;13.754;2023-08-12T12:43:34;100428.25;;;40.37;21.26
75063;BME280;63981;51.052;13.754;2023-08-12T12:46:01;100417.16;;;39.85;21.58
75063;BME280;63981;51.052;13.754;2023-08-12T12:48:27;100415.22;;;40.43;23.84
75063;BME280;63981;51.052;13.754;2023-08-12T12:50:53;100406.16;;;43.29;18.36